Bei Facebook empfehlenBei Twitter postenGoogle plusPinterest

Das Wetter im Erzgebirge am 07.02.2016

Wetter und Klima am 07.02.2016 Holzhau im Erzgebirge (630m ü.NN)
Letzte gemessene Temperatur und Uhrzeit der Messung23:45:00 Uhr3.90 °C
Temperatur (Maximum / Höchstwert) und Uhrzeit der Messung23:45:00 Uhr3.90 °C
Temperatur (Minimum / Tiefstwert) und Uhrzeit der Messung08:00:000.30 °C
Errechneter Absolutwert der Temperaturschwankungen zwischen Tmin und Tmax des Tages3.60 K
Errechnete Tagesmitteltemperatur1.91250 °C
Gesamt - Niederschlag des Tages (in flüssiger Form)0.00 Liter / m²
Luftdruck (Maximum / Höchstwert) und Zeitpunkt der Messung00:00:00 Uhr1007.70 hPa
Luftdruck (Minimum / Tiefstwert) und Zeitpunkt der Messung16:15:00 Uhr1001.00 hPa
Errechneter Absolutwert der Luftdruckschwankungen des Tages6.70 hPa
Höchste gemessene Windgeschwindigkeit und Uhrzeit der Messung09:45:00 Uhr14.76 km/h
Errechnete Windhäufigkeit in Relation zu den Messwerten des Tages39.58333 %
Niedrigste Windkühle (Windchill) und Zeitpunkt der Messung07:15:00 Uhr-3.10 °C
Taupunkt (Maximum / Höchstwert) und Uhrzeit der Messung22:15:00 Uhr2.60 °C
Taupunkt (Minimum / Tiefstwert) und Uhrzeit der Messung06:45:00-0.80 °C
Anzahl der automatisch eingelesenen Messwerte 96

Detaillierte Wetter- und Klima- Messwerte für den 07.02.2016 in Holzhau im Erzgebirge (630m ü.NN)
ZeitTemperaturLuftdruckRel. LuftfeuchteWindWindrichtungWindchillTaupunktNiederschlag l/m²
23:45:003.90 °C1004.50 hPa89.00 %2.30 °C 
23:30:003.80 °C1004.50 hPa89.00 %2.20 °C 
23:15:003.90 °C1004.20 hPa90.00 %2.40 °C 
23:00:003.90 °C1004.20 hPa90.00 %2.40 °C 
22:45:003.80 °C1004.20 hPa91.00 %2.50 °C 
22:30:003.80 °C1004.00 hPa91.00 %2.50 °C 
22:15:003.80 °C1003.90 hPa92.00 %2.60 °C 
22:00:003.60 °C1003.90 hPa92.00 %2.40 °C 
21:45:003.30 °C1004.10 hPa93.00 %2.52 km/hWNW3.30 °C2.30 °C 
21:30:002.50 °C1003.80 hPa93.00 %12.60 km/hS-0.90 °C1.50 °C 
21:15:001.90 °C1003.60 hPa92.00 %0.70 °C 
21:00:001.80 °C1003.40 hPa92.00 %0.60 °C 
20:45:001.80 °C1003.40 hPa92.00 %0.60 °C 
20:30:001.90 °C1003.20 hPa92.00 %0.70 °C 
20:15:001.90 °C1003.00 hPa92.00 %0.70 °C 
20:00:001.80 °C1002.70 hPa92.00 %2.16 km/hSW1.80 °C0.60 °C 
19:45:001.60 °C1002.70 hPa92.00 %0.40 °C 
19:30:001.60 °C1002.60 hPa92.00 %0.40 °C 
19:15:001.60 °C1002.70 hPa92.00 %0.40 °C 
19:00:001.60 °C1002.50 hPa92.00 %0.40 °C 
18:45:001.60 °C1002.30 hPa92.00 %2.88 km/hONO1.60 °C0.40 °C 
18:30:001.50 °C1001.90 hPa92.00 %3.24 km/hNNO1.50 °C0.30 °C 
18:15:001.30 °C1002.00 hPa91.00 %0.00 °C 
18:00:001.10 °C1001.80 hPa91.00 %-0.20 °C 
17:45:001.10 °C1001.70 hPa90.00 %-0.40 °C 
17:30:001.00 °C1001.70 hPa90.00 %-0.50 °C 
17:15:000.90 °C1001.70 hPa89.00 %1.80 km/hO0.90 °C-0.70 °C 
17:00:000.90 °C1001.50 hPa89.00 %-0.70 °C 
16:45:001.20 °C1001.50 hPa89.00 %7.92 km/hONO-1.30 °C-0.40 °C 
16:30:001.40 °C1001.40 hPa89.00 %-0.20 °C 
16:15:001.60 °C1001.00 hPa89.00 %3.24 km/hSSO1.60 °C0.00 °C 
16:00:001.90 °C1001.30 hPa88.00 %2.88 km/hSSO1.90 °C0.10 °C 
15:45:002.20 °C1001.40 hPa89.00 %0.60 °C 
15:30:002.10 °C1001.40 hPa89.00 %0.50 °C 
15:15:002.10 °C1001.60 hPa89.00 %0.50 °C 
15:00:002.40 °C1001.50 hPa89.00 %0.80 °C 
14:45:002.40 °C1001.40 hPa89.00 %2.16 km/hNNW2.40 °C0.80 °C 
14:30:002.20 °C1001.40 hPa89.00 %0.60 °C 
14:15:002.30 °C1001.70 hPa89.00 %4.68 km/hSSO2.30 °C0.70 °C 
14:00:002.60 °C1001.70 hPa89.00 %5.76 km/hOSO1.10 °C1.00 °C 
13:45:002.90 °C1001.70 hPa89.00 %1.30 °C 
13:30:002.60 °C1001.80 hPa90.00 %1.10 °C 
13:15:002.70 °C1001.80 hPa90.00 %1.20 °C 
13:00:002.90 °C1001.80 hPa90.00 %1.40 °C 
12:45:003.10 °C1002.20 hPa91.00 %1.80 °C 
12:30:002.90 °C1002.50 hPa91.00 %1.60 °C 
12:15:003.30 °C1002.70 hPa91.00 %2.00 °C 
12:00:003.30 °C1002.80 hPa92.00 %2.10 °C 
11:45:002.80 °C1002.80 hPa92.00 %6.48 km/hO1.00 °C1.60 °C 
11:30:002.60 °C1002.80 hPa92.00 %12.60 km/hO-0.80 °C1.40 °C 
11:15:002.90 °C1003.40 hPa93.00 %1.90 °C 
11:00:003.00 °C1003.60 hPa93.00 %8.28 km/hSSO0.70 °C2.00 °C 
10:45:002.40 °C1003.60 hPa93.00 %1.40 °C 
10:30:002.10 °C1003.40 hPa93.00 %1.10 °C 
10:15:001.90 °C1003.40 hPa94.00 %1.00 °C 
10:00:001.60 °C1003.50 hPa94.00 %0.70 °C 
09:45:001.40 °C1003.80 hPa93.00 %14.76 km/hONO-2.60 °C0.40 °C 
09:30:001.30 °C1003.80 hPa93.00 %0.30 °C 
09:15:001.10 °C1003.70 hPa93.00 %1.80 km/hNNW1.10 °C0.10 °C 
09:00:000.90 °C1004.00 hPa93.00 %-0.10 °C 
08:45:000.70 °C1004.00 hPa93.00 %-0.30 °C 
08:30:000.50 °C1003.80 hPa93.00 %-0.50 °C 
08:15:000.40 °C1004.00 hPa93.00 %-0.60 °C 
08:00:000.30 °C1004.10 hPa93.00 %1.80 km/hNNO0.30 °C-0.70 °C 
07:45:000.40 °C1003.60 hPa93.00 %-0.60 °C 
07:30:000.40 °C1003.50 hPa93.00 %-0.60 °C 
07:15:000.40 °C1003.60 hPa93.00 %11.16 km/hN-3.10 °C-0.60 °C 
07:00:000.40 °C1003.60 hPa93.00 %-0.60 °C 
06:45:000.30 °C1003.80 hPa92.00 %3.24 km/hSSO0.30 °C-0.80 °C 
06:30:000.40 °C1004.10 hPa93.00 %-0.60 °C 
06:15:000.50 °C1003.90 hPa93.00 %-0.50 °C 
06:00:000.50 °C1004.00 hPa93.00 %1.44 km/hSO0.50 °C-0.50 °C 
05:45:000.40 °C1004.50 hPa92.00 %3.96 km/hO0.40 °C-0.70 °C 
05:30:000.60 °C1004.00 hPa92.00 %-0.50 °C 
05:15:000.90 °C1004.00 hPa92.00 %2.88 km/hO0.90 °C-0.20 °C 
05:00:001.00 °C1004.10 hPa92.00 %8.64 km/hOSO-1.80 °C-0.10 °C 
04:45:001.30 °C1004.20 hPa92.00 %4.68 km/hONO1.30 °C0.10 °C 
04:30:001.30 °C1004.30 hPa92.00 %5.76 km/hSO-0.40 °C0.10 °C 
04:15:001.30 °C1004.10 hPa92.00 %9.36 km/hOSO-1.60 °C0.10 °C 
04:00:001.30 °C1004.30 hPa92.00 %11.88 km/hSO-2.20 °C0.10 °C 
03:45:001.60 °C1004.50 hPa92.00 %10.80 km/hNO-1.60 °C0.40 °C 
03:30:001.60 °C1004.80 hPa92.00 %7.92 km/hOSO-0.80 °C0.40 °C 
03:15:001.60 °C1005.00 hPa92.00 %8.28 km/hOSO-0.90 °C0.40 °C 
03:00:001.40 °C1005.10 hPa92.00 %6.48 km/hOSO-0.60 °C0.20 °C 
02:45:001.50 °C1005.30 hPa92.00 %0.30 °C 
02:30:001.60 °C1005.60 hPa92.00 %4.32 km/hSO1.60 °C0.40 °C 
02:15:002.10 °C1005.90 hPa91.00 %9.00 km/hO-0.60 °C0.80 °C 
02:00:002.40 °C1005.80 hPa91.00 %1.80 km/hSSO2.40 °C1.10 °C 
01:45:002.70 °C1005.90 hPa91.00 %1.80 km/hSO2.70 °C1.40 °C 
01:30:002.70 °C1006.20 hPa92.00 %1.50 °C 
01:15:002.50 °C1006.40 hPa91.00 %1.80 km/hOSO2.50 °C1.20 °C 
01:00:002.40 °C1006.60 hPa91.00 %7.92 km/hO0.10 °C1.10 °C 
00:45:002.70 °C1006.90 hPa91.00 %1.40 °C 
00:30:002.60 °C1006.80 hPa91.00 %1.30 °C 
00:15:002.60 °C1007.30 hPa91.00 %1.30 °C 
00:00:003.00 °C1007.70 hPa91.00 %1.70 °C 

Permanenter Link zu dieser Seite: Wetter im Erzgebirge am 07.02.2016
Performance-Info: Die Erstellung der Seite / Statistik(en) / Tabelle(n) erforderte 5 Datenbankserver-Abfrage(n) und dauerte 100 Millisekunden. (Dieser Messwert ist von der Gesamt-Auslastung des Servers abhängig.)
Erzgebirge - Wetter | Erzgebirge - Wetter (Mobilgeräte) | Komplette Klimadatenbank